FWI75H FMEE-LFPO
Flight info
| Callsign | FWI75H |
|---|---|
| Flight time | N/A |
| Altitude | 36000 |
| Route | UVENA2J UVENA UN304 DENLI/N0495F370 UN304 APKAK/N0492F380 UN304 DWA DCT XADOX DCT KONET/N0489F390 UG650 RASKA/N0493F380 T513 EGMEG/N0489F390 G660 JDW/N0487F400 L677 CVO L617 TANSA UL613 KOR DCT TUMBO DCT OVVER DCT RODON DCT VAKSU DCT BAXON DCT CERVI DCT MOLUS/N0485F380 DCT UNKIR DCT DJL |
| Aircraft | A359/H-SDE2E3GHIJ3J4J5LM1ORWXY/LB1D1 |
Departure
| Time | 2026-04-15 03:10 |
|---|---|
| Airport | Roland Garros Airport (FMEE) |
Arrival
| Time | N/A |
|---|---|
| Airport | Paris-Orly Airport (LFPO) |
| Time | Latitude | Longitude | Altitude | Speed | Heading |
|---|---|---|---|---|---|
| 2026-04-15 02:39 | -20.89049 | 55.51170 | 56 ft | 0 kts | 206° |
| 2026-04-15 03:00 | -20.89034 | 55.51178 | 56 ft | 4 kts | 206° |
| 2026-04-15 03:01 | -20.89010 | 55.51190 | 57 ft | 4 kts | 206° |
| 2026-04-15 03:01 | -20.88990 | 55.51202 | 56 ft | 4 kts | 234° |
| 2026-04-15 03:01 | -20.88986 | 55.51225 | 56 ft | 4 kts | 291° |
| 2026-04-15 03:01 | -20.88996 | 55.51248 | 59 ft | 1 kts | 296° |
| 2026-04-15 03:02 | -20.88998 | 55.51253 | 57 ft | 0 kts | 296° |
| 2026-04-15 03:05 | -20.88992 | 55.51239 | 59 ft | 8 kts | 296° |
| 2026-04-15 03:05 | -20.88928 | 55.51181 | 65 ft | 16 kts | 339° |
| 2026-04-15 03:05 | -20.88812 | 55.51140 | 55 ft | 19 kts | 341° |
| 2026-04-15 03:06 | -20.88727 | 55.51062 | 51 ft | 16 kts | 300° |
| 2026-04-15 03:06 | -20.88697 | 55.50950 | 51 ft | 17 kts | 281° |
| 2026-04-15 03:06 | -20.88670 | 55.50818 | 49 ft | 19 kts | 283° |
| 2026-04-15 03:06 | -20.88640 | 55.50675 | 48 ft | 20 kts | 283° |
| 2026-04-15 03:07 | -20.88612 | 55.50567 | 48 ft | 11 kts | 295° |
| 2026-04-15 03:07 | -20.88582 | 55.50500 | 44 ft | 5 kts | 266° |
| 2026-04-15 03:07 | -20.88591 | 55.50489 | 42 ft | 1 kts | 221° |
| 2026-04-15 03:07 | -20.88604 | 55.50492 | 43 ft | 1 kts | 171° |
| 2026-04-15 03:08 | -20.88608 | 55.50508 | 47 ft | 3 kts | 101° |
| 2026-04-15 03:08 | -20.88610 | 55.50516 | 46 ft | 0 kts | 101° |
| 2026-04-15 03:09 | -20.88625 | 55.50595 | 46 ft | 39 kts | 102° |
| 2026-04-15 03:09 | -20.88734 | 55.51128 | 56 ft | 106 kts | 102° |
| 2026-04-15 03:09 | -20.88940 | 55.52108 | 50 ft | 162 kts | 102° |
| 2026-04-15 03:10 | -20.89114 | 55.53366 | 544 ft | 173 kts | 91° |
| 2026-04-15 03:10 | -20.88598 | 55.54466 | 1200 ft | 174 kts | 38° |
| 2026-04-15 03:10 | -20.87404 | 55.54886 | 1399 ft | 194 kts | 359° |
| 2026-04-15 03:10 | -20.86018 | 55.54793 | 1608 ft | 205 kts | 359° |
| 2026-04-15 03:11 | -20.84550 | 55.54816 | 1816 ft | 218 kts | 4° |
| 2026-04-15 03:11 | -20.82983 | 55.55005 | 2010 ft | 234 kts | 9° |
| 2026-04-15 03:11 | -20.81321 | 55.55292 | 2215 ft | 249 kts | 12° |
| 2026-04-15 03:11 | -20.79564 | 55.55642 | 2470 ft | 262 kts | 12° |
| 2026-04-15 03:12 | -20.77721 | 55.55783 | 2842 ft | 271 kts | 352° |
| 2026-04-15 03:12 | -20.75921 | 55.55182 | 3384 ft | 272 kts | 339° |
| 2026-04-15 03:12 | -20.74174 | 55.54410 | 3949 ft | 271 kts | 338° |
| 2026-04-15 03:12 | -20.72423 | 55.53623 | 4453 ft | 274 kts | 338° |
| 2026-04-15 03:13 | -20.70648 | 55.52828 | 4943 ft | 277 kts | 338° |
| 2026-04-15 03:13 | -20.68887 | 55.52050 | 5475 ft | 277 kts | 337° |
| 2026-04-15 03:13 | -20.67100 | 55.51265 | 6003 ft | 278 kts | 337° |
| 2026-04-15 03:13 | -20.65306 | 55.50480 | 6486 ft | 281 kts | 337° |
| 2026-04-15 03:14 | -20.63492 | 55.49688 | 6936 ft | 283 kts | 336° |
| 2026-04-15 03:14 | -20.61662 | 55.48892 | 7428 ft | 284 kts | 337° |
| 2026-04-15 03:14 | -20.59825 | 55.48093 | 7912 ft | 285 kts | 337° |
| 2026-04-15 03:14 | -20.57984 | 55.47292 | 8402 ft | 287 kts | 337° |
| 2026-04-15 03:15 | -20.56131 | 55.46488 | 8899 ft | 288 kts | 336° |
| 2026-04-15 03:15 | -20.54268 | 55.45672 | 9393 ft | 290 kts | 336° |
| 2026-04-15 03:15 | -20.52399 | 55.44853 | 9893 ft | 292 kts | 336° |
| 2026-04-15 03:15 | -20.50501 | 55.44021 | 10223 ft | 299 kts | 336° |
| 2026-04-15 03:16 | -20.48539 | 55.43162 | 10416 ft | 311 kts | 336° |
| 2026-04-15 03:16 | -20.46503 | 55.42271 | 10601 ft | 322 kts | 336° |
| 2026-04-15 03:16 | -20.44391 | 55.41348 | 10810 ft | 333 kts | 336° |
| 2026-04-15 03:16 | -20.42210 | 55.40396 | 10986 ft | 344 kts | 336° |
| 2026-04-15 03:17 | -20.39967 | 55.39417 | 11179 ft | 354 kts | 336° |
| 2026-04-15 03:17 | -20.37652 | 55.38408 | 11358 ft | 363 kts | 336° |
| 2026-04-15 03:17 | -20.35282 | 55.37375 | 11536 ft | 372 kts | 336° |
| 2026-04-15 03:17 | -20.32890 | 55.36332 | 11693 ft | 381 kts | 336° |
| 2026-04-15 03:18 | -20.30417 | 55.35255 | 11929 ft | 386 kts | 336° |
| 2026-04-15 03:18 | -20.27921 | 55.34168 | 12254 ft | 389 kts | 336° |
| 2026-04-15 03:18 | -20.25404 | 55.33073 | 12597 ft | 391 kts | 336° |
| 2026-04-15 03:18 | -20.22876 | 55.31973 | 12933 ft | 393 kts | 336° |
| 2026-04-15 03:19 | -20.20337 | 55.30869 | 13278 ft | 395 kts | 336° |
| 2026-04-15 03:19 | -20.17790 | 55.29761 | 13620 ft | 397 kts | 336° |
| 2026-04-15 03:19 | -20.15226 | 55.28646 | 13904 ft | 399 kts | 336° |
| 2026-04-15 03:19 | -20.12645 | 55.27524 | 14156 ft | 402 kts | 336° |
| 2026-04-15 03:20 | -20.10057 | 55.26399 | 14456 ft | 403 kts | 336° |
| 2026-04-15 03:20 | -20.07454 | 55.25269 | 14742 ft | 405 kts | 336° |
| 2026-04-15 03:20 | -20.04837 | 55.24133 | 15031 ft | 406 kts | 336° |
| 2026-04-15 03:20 | -20.02216 | 55.22995 | 15338 ft | 408 kts | 336° |
| 2026-04-15 03:21 | -19.99583 | 55.21853 | 15627 ft | 409 kts | 336° |
| 2026-04-15 03:21 | -19.94317 | 55.19570 | 16227 ft | 412 kts | 336° |
| 2026-04-15 03:21 | -19.91651 | 55.18414 | 16523 ft | 414 kts | 336° |
| 2026-04-15 03:22 | -19.88976 | 55.17255 | 16805 ft | 416 kts | 336° |
| 2026-04-15 03:22 | -19.86295 | 55.16094 | 17094 ft | 417 kts | 336° |
| 2026-04-15 03:22 | -19.83597 | 55.14925 | 17325 ft | 420 kts | 336° |
| 2026-04-15 03:22 | -19.80879 | 55.13749 | 17590 ft | 422 kts | 336° |
| 2026-04-15 03:23 | -19.78159 | 55.12572 | 17894 ft | 423 kts | 336° |
| 2026-04-15 03:23 | -19.75460 | 55.11406 | 18154 ft | 424 kts | 336° |
| 2026-04-15 03:23 | -19.72717 | 55.10220 | 18408 ft | 426 kts | 336° |
| 2026-04-15 03:23 | -19.69931 | 55.09016 | 18644 ft | 428 kts | 336° |
| 2026-04-15 03:24 | -19.67164 | 55.07821 | 18850 ft | 430 kts | 336° |
| 2026-04-15 03:24 | -19.64422 | 55.06636 | 19064 ft | 431 kts | 336° |
| 2026-04-15 03:24 | -19.61649 | 55.05440 | 19295 ft | 433 kts | 336° |
| 2026-04-15 03:24 | -19.58820 | 55.04219 | 19515 ft | 434 kts | 336° |
| 2026-04-15 03:25 | -19.56033 | 55.03017 | 19733 ft | 436 kts | 336° |
| 2026-04-15 03:25 | -19.53215 | 55.01802 | 19935 ft | 438 kts | 336° |
| 2026-04-15 03:25 | -19.50379 | 55.00579 | 20115 ft | 440 kts | 336° |
| 2026-04-15 03:25 | -19.47538 | 54.99355 | 20296 ft | 442 kts | 336° |
| 2026-04-15 03:26 | -19.44720 | 54.98142 | 20519 ft | 443 kts | 336° |
| 2026-04-15 03:26 | -19.41852 | 54.96907 | 20726 ft | 445 kts | 336° |
| 2026-04-15 03:26 | -19.38964 | 54.95664 | 20935 ft | 446 kts | 336° |
| 2026-04-15 03:26 | -19.36087 | 54.94427 | 21138 ft | 448 kts | 336° |
| 2026-04-15 03:27 | -19.33198 | 54.93185 | 21352 ft | 449 kts | 336° |
| 2026-04-15 03:27 | -19.30298 | 54.91938 | 21554 ft | 450 kts | 336° |
| 2026-04-15 03:27 | -19.27386 | 54.90687 | 21755 ft | 452 kts | 336° |
| 2026-04-15 03:27 | -19.24508 | 54.89451 | 21950 ft | 453 kts | 336° |
| 2026-04-15 03:28 | -19.21575 | 54.88191 | 22087 ft | 456 kts | 336° |
| 2026-04-15 03:28 | -19.18626 | 54.86925 | 22261 ft | 458 kts | 336° |
| 2026-04-15 03:28 | -19.15669 | 54.85657 | 22468 ft | 459 kts | 336° |
| 2026-04-15 03:28 | -19.12701 | 54.84384 | 22660 ft | 461 kts | 336° |
| 2026-04-15 03:29 | -19.09724 | 54.83108 | 22853 ft | 462 kts | 336° |
| 2026-04-15 03:29 | -19.06734 | 54.81827 | 23043 ft | 463 kts | 336° |
| 2026-04-15 03:29 | -19.03740 | 54.80537 | 23228 ft | 465 kts | 335° |
| 2026-04-15 03:29 | -19.00833 | 54.79051 | 23399 ft | 464 kts | 328° |
| 2026-04-15 03:30 | -18.98154 | 54.77155 | 23584 ft | 463 kts | 319° |
| 2026-04-15 03:30 | -18.95730 | 54.74915 | 23733 ft | 462 kts | 315° |
| 2026-04-15 03:30 | -18.93384 | 54.72576 | 23877 ft | 464 kts | 314° |
| 2026-04-15 03:30 | -18.91072 | 54.70255 | 24007 ft | 466 kts | 314° |
| 2026-04-15 03:31 | -18.88708 | 54.67889 | 24115 ft | 467 kts | 315° |
| 2026-04-15 03:31 | -18.86344 | 54.65530 | 24308 ft | 468 kts | 315° |
| 2026-04-15 03:31 | -18.83973 | 54.63168 | 24484 ft | 468 kts | 315° |
| 2026-04-15 03:31 | -18.81601 | 54.60808 | 24647 ft | 469 kts | 315° |
| 2026-04-15 03:32 | -18.79224 | 54.58443 | 24806 ft | 470 kts | 315° |
| 2026-04-15 03:32 | -18.77649 | 54.56878 | 24909 ft | 470 kts | 315° |
| 2026-04-15 03:32 | -18.75261 | 54.54506 | 25058 ft | 471 kts | 315° |
| 2026-04-15 03:32 | -18.72095 | 54.51362 | 25282 ft | 472 kts | 315° |
| 2026-04-15 03:33 | -18.69702 | 54.48988 | 25427 ft | 473 kts | 315° |
| 2026-04-15 03:33 | -18.67302 | 54.46607 | 25565 ft | 474 kts | 315° |
| 2026-04-15 03:33 | -18.65676 | 54.44995 | 25659 ft | 475 kts | 315° |
| 2026-04-15 03:33 | -18.63265 | 54.42618 | 25830 ft | 476 kts | 316° |
| 2026-04-15 03:34 | -18.60711 | 54.40443 | 25970 ft | 478 kts | 323° |
| 2026-04-15 03:34 | -18.57825 | 54.38648 | 26135 ft | 481 kts | 331° |
| 2026-04-15 03:34 | -18.54800 | 54.37090 | 26261 ft | 483 kts | 333° |
| 2026-04-15 03:34 | -18.51770 | 54.35640 | 26410 ft | 484 kts | 334° |
| 2026-04-15 03:35 | -18.48690 | 54.34215 | 26573 ft | 485 kts | 334° |
| 2026-04-15 03:35 | -18.45599 | 54.32795 | 26726 ft | 485 kts | 334° |
| 2026-04-15 03:35 | -18.42488 | 54.31359 | 26875 ft | 486 kts | 334° |
| 2026-04-15 03:35 | -18.39389 | 54.29917 | 27022 ft | 487 kts | 334° |
| 2026-04-15 03:36 | -18.36301 | 54.28470 | 27191 ft | 488 kts | 334° |
| 2026-04-15 03:36 | -18.33209 | 54.27014 | 27347 ft | 488 kts | 334° |
| 2026-04-15 03:36 | -18.30075 | 54.25535 | 27504 ft | 489 kts | 334° |
| 2026-04-15 03:36 | -18.26979 | 54.24073 | 27644 ft | 490 kts | 334° |
| 2026-04-15 03:37 | -18.23890 | 54.22613 | 27778 ft | 491 kts | 334° |
| 2026-04-15 03:37 | -18.20774 | 54.21142 | 27907 ft | 492 kts | 334° |
| 2026-04-15 03:37 | -18.17618 | 54.19654 | 28061 ft | 493 kts | 334° |
| 2026-04-15 03:37 | -18.14481 | 54.18176 | 28225 ft | 494 kts | 334° |
| 2026-04-15 03:38 | -18.11346 | 54.16700 | 28373 ft | 495 kts | 334° |
| 2026-04-15 03:38 | -18.08219 | 54.15229 | 28508 ft | 495 kts | 334° |
| 2026-04-15 03:38 | -18.05099 | 54.13756 | 28655 ft | 496 kts | 334° |
| 2026-04-15 03:38 | -18.01920 | 54.12244 | 28784 ft | 497 kts | 334° |
| 2026-04-15 03:39 | -17.98802 | 54.10758 | 28935 ft | 497 kts | 334° |
| 2026-04-15 03:39 | -17.95657 | 54.09260 | 29054 ft | 498 kts | 334° |
| 2026-04-15 03:39 | -17.92473 | 54.07745 | 29203 ft | 498 kts | 334° |
| 2026-04-15 03:39 | -17.89335 | 54.06254 | 29341 ft | 499 kts | 334° |
| 2026-04-15 03:40 | -17.86135 | 54.04736 | 29474 ft | 499 kts | 334° |
| 2026-04-15 03:40 | -17.82995 | 54.03247 | 29594 ft | 500 kts | 334° |
| 2026-04-15 03:40 | -17.79801 | 54.01734 | 29718 ft | 501 kts | 334° |
| 2026-04-15 03:40 | -17.76620 | 54.00227 | 29871 ft | 501 kts | 334° |
| 2026-04-15 03:41 | -17.73464 | 53.98734 | 30069 ft | 500 kts | 334° |
| 2026-04-15 03:41 | -17.70287 | 53.97230 | 30224 ft | 500 kts | 334° |
| 2026-04-15 03:41 | -17.67138 | 53.95741 | 30393 ft | 499 kts | 334° |
| 2026-04-15 03:41 | -17.63987 | 53.94251 | 30558 ft | 499 kts | 334° |
| 2026-04-15 03:42 | -17.60784 | 53.92737 | 30740 ft | 498 kts | 334° |
| 2026-04-15 03:42 | -17.57651 | 53.91257 | 30922 ft | 498 kts | 334° |
| 2026-04-15 03:42 | -17.54488 | 53.89763 | 31117 ft | 497 kts | 334° |
| 2026-04-15 03:42 | -17.51320 | 53.88267 | 31311 ft | 496 kts | 334° |
| 2026-04-15 03:43 | -17.48193 | 53.86791 | 31507 ft | 496 kts | 334° |
| 2026-04-15 03:43 | -17.45042 | 53.85305 | 31687 ft | 495 kts | 334° |
| 2026-04-15 03:43 | -17.41900 | 53.83823 | 31872 ft | 495 kts | 334° |
| 2026-04-15 03:43 | -17.38793 | 53.82358 | 32066 ft | 494 kts | 334° |
| 2026-04-15 03:44 | -17.35642 | 53.80873 | 32264 ft | 494 kts | 334° |
| 2026-04-15 03:44 | -17.32542 | 53.79413 | 32440 ft | 493 kts | 333° |
| 2026-04-15 03:44 | -17.29424 | 53.77946 | 32848 ft | 487 kts | 333° |
| 2026-04-15 03:44 | -17.26350 | 53.76500 | 33194 ft | 484 kts | 333° |
| 2026-04-15 03:45 | -17.23241 | 53.75037 | 33389 ft | 483 kts | 333° |
| 2026-04-15 03:45 | -17.20210 | 53.73610 | 33554 ft | 483 kts | 333° |
| 2026-04-15 03:45 | -17.17143 | 53.72167 | 33758 ft | 483 kts | 333° |
| 2026-04-15 03:45 | -17.14086 | 53.70730 | 33969 ft | 482 kts | 333° |
| 2026-04-15 03:46 | -17.11033 | 53.69295 | 34147 ft | 481 kts | 333° |
| 2026-04-15 03:46 | -17.07972 | 53.67857 | 34309 ft | 480 kts | 333° |
| 2026-04-15 03:46 | -17.04929 | 53.66428 | 34480 ft | 480 kts | 333° |
| 2026-04-15 03:46 | -17.01881 | 53.64997 | 34644 ft | 479 kts | 333° |
| 2026-04-15 03:47 | -16.98884 | 53.63592 | 34938 ft | 474 kts | 332° |
| 2026-04-15 03:47 | -16.95887 | 53.62188 | 35228 ft | 471 kts | 332° |
| 2026-04-15 03:47 | -16.92899 | 53.60787 | 35374 ft | 471 kts | 332° |
| 2026-04-15 03:47 | -16.89907 | 53.59384 | 35492 ft | 471 kts | 332° |
| 2026-04-15 03:48 | -16.86913 | 53.57980 | 35626 ft | 471 kts | 332° |
| 2026-04-15 03:48 | -16.83918 | 53.56577 | 35789 ft | 470 kts | 332° |
| 2026-04-15 03:48 | -16.80950 | 53.55187 | 35924 ft | 470 kts | 333° |
| 2026-04-15 03:48 | -16.77948 | 53.53781 | 35999 ft | 472 kts | 333° |
| 2026-04-15 03:49 | -16.71923 | 53.50961 | 36004 ft | 476 kts | 333° |
| 2026-04-15 03:49 | -16.65905 | 53.48148 | 36006 ft | 474 kts | 333° |
| 2026-04-15 03:50 | -16.59901 | 53.45345 | 36006 ft | 473 kts | 333° |
| 2026-04-15 03:50 | -16.53879 | 53.42534 | 36001 ft | 473 kts | 333° |
| 2026-04-15 03:51 | -16.47886 | 53.39737 | 36003 ft | 473 kts | 333° |
| 2026-04-15 03:51 | -16.41871 | 53.36933 | 36005 ft | 473 kts | 333° |
| 2026-04-15 03:52 | -16.35895 | 53.34153 | 36004 ft | 471 kts | 333° |
| 2026-04-15 03:52 | -16.29923 | 53.31373 | 36001 ft | 470 kts | 333° |
| 2026-04-15 03:53 | -16.23957 | 53.28594 | 36001 ft | 469 kts | 333° |
| 2026-04-15 03:53 | -16.18003 | 53.25824 | 36002 ft | 470 kts | 333° |
| 2026-04-15 03:54 | -16.12024 | 53.23046 | 36004 ft | 470 kts | 333° |
| 2026-04-15 03:55 | -16.03061 | 53.18884 | 36003 ft | 469 kts | 333° |
| 2026-04-15 03:55 | -15.97137 | 53.16137 | 36004 ft | 469 kts | 333° |
| 2026-04-15 03:56 | -15.91175 | 53.13373 | 36003 ft | 469 kts | 333° |
| 2026-04-15 03:56 | -15.85213 | 53.10611 | 36005 ft | 469 kts | 333° |
| 2026-04-15 03:57 | -15.79251 | 53.07851 | 36004 ft | 469 kts | 333° |
| 2026-04-15 03:57 | -15.73289 | 53.05093 | 36001 ft | 468 kts | 333° |
| 2026-04-15 03:58 | -15.67330 | 53.02338 | 35998 ft | 467 kts | 333° |
| 2026-04-15 03:58 | -15.61432 | 52.99613 | 35999 ft | 468 kts | 333° |
| 2026-04-15 03:59 | -15.55449 | 52.96850 | 35998 ft | 468 kts | 333° |
| 2026-04-15 03:59 | -15.49515 | 52.94111 | 35999 ft | 468 kts | 333° |
| 2026-04-15 04:00 | -15.43549 | 52.91360 | 35996 ft | 467 kts | 333° |
| 2026-04-15 04:00 | -15.37672 | 52.88652 | 35998 ft | 464 kts | 333° |
| 2026-04-15 04:01 | -15.31780 | 52.85938 | 35997 ft | 464 kts | 333° |
| 2026-04-15 04:01 | -15.25844 | 52.83205 | 35996 ft | 464 kts | 333° |
| 2026-04-15 04:02 | -15.19961 | 52.80498 | 35993 ft | 464 kts | 334° |
| 2026-04-15 04:02 | -15.14065 | 52.77787 | 35992 ft | 464 kts | 334° |
| 2026-04-15 04:03 | -15.08169 | 52.75078 | 35992 ft | 464 kts | 334° |
| 2026-04-15 04:03 | -15.02266 | 52.72368 | 35994 ft | 463 kts | 334° |
| 2026-04-15 04:04 | -14.96352 | 52.69654 | 35993 ft | 463 kts | 334° |
| 2026-04-15 04:04 | -14.90457 | 52.66950 | 35993 ft | 463 kts | 334° |
| 2026-04-15 04:05 | -14.84568 | 52.64251 | 35994 ft | 463 kts | 334° |
| 2026-04-15 04:05 | -14.78700 | 52.61563 | 35991 ft | 465 kts | 334° |
| 2026-04-15 04:06 | -14.72769 | 52.58847 | 35994 ft | 466 kts | 334° |
| 2026-04-15 04:06 | -14.66833 | 52.56132 | 35992 ft | 466 kts | 334° |
| 2026-04-15 04:07 | -14.60907 | 52.53422 | 35993 ft | 466 kts | 334° |
| 2026-04-15 04:07 | -14.54984 | 52.50715 | 35993 ft | 465 kts | 334° |
| 2026-04-15 04:08 | -14.49104 | 52.48030 | 35993 ft | 465 kts | 334° |
| 2026-04-15 04:08 | -14.43183 | 52.45328 | 35993 ft | 465 kts | 334° |
| 2026-04-15 04:09 | -14.37274 | 52.42632 | 35993 ft | 465 kts | 334° |
| 2026-04-15 04:09 | -14.31372 | 52.39941 | 35991 ft | 465 kts | 334° |
| 2026-04-15 04:10 | -14.25461 | 52.37247 | 35990 ft | 465 kts | 334° |
| 2026-04-15 04:10 | -14.19512 | 52.34538 | 35995 ft | 465 kts | 334° |
| 2026-04-15 04:11 | -14.13611 | 52.31852 | 35991 ft | 466 kts | 334° |
| 2026-04-15 04:11 | -14.07679 | 52.29154 | 35984 ft | 466 kts | 334° |
| 2026-04-15 04:12 | -14.01751 | 52.26458 | 35997 ft | 466 kts | 334° |
| 2026-04-15 04:12 | -13.95827 | 52.23767 | 35985 ft | 465 kts | 334° |
| 2026-04-15 04:13 | -13.89884 | 52.21068 | 35990 ft | 466 kts | 334° |
| 2026-04-15 04:13 | -13.83958 | 52.18379 | 35985 ft | 466 kts | 334° |
| 2026-04-15 04:14 | -13.78029 | 52.15689 | 35980 ft | 467 kts | 334° |
| 2026-04-15 04:14 | -13.72090 | 52.12996 | 35980 ft | 467 kts | 334° |
| 2026-04-15 04:15 | -13.66146 | 52.10303 | 35989 ft | 467 kts | 334° |
| 2026-04-15 04:15 | -13.60207 | 52.07614 | 35983 ft | 467 kts | 334° |
| 2026-04-15 04:16 | -13.54279 | 52.04930 | 35989 ft | 467 kts | 334° |
| 2026-04-15 04:16 | -13.48325 | 52.02237 | 35980 ft | 467 kts | 334° |
| 2026-04-15 04:17 | -13.42374 | 51.99547 | 35986 ft | 467 kts | 334° |
| 2026-04-15 04:17 | -13.36429 | 51.96862 | 35980 ft | 467 kts | 334° |
| 2026-04-15 04:18 | -13.30474 | 51.94171 | 35986 ft | 467 kts | 334° |
| 2026-04-15 04:18 | -13.24525 | 51.91485 | 35984 ft | 467 kts | 335° |
| 2026-04-15 04:19 | -13.18568 | 51.88797 | 35986 ft | 467 kts | 335° |
| 2026-04-15 04:19 | -13.12621 | 51.86116 | 35983 ft | 467 kts | 335° |
| 2026-04-15 04:20 | -13.06685 | 51.83440 | 35986 ft | 467 kts | 335° |
| 2026-04-15 04:20 | -13.00757 | 51.80771 | 35985 ft | 467 kts | 335° |
| 2026-04-15 04:21 | -12.94789 | 51.78083 | 35974 ft | 468 kts | 335° |
| 2026-04-15 04:21 | -12.89798 | 51.75838 | 35977 ft | 469 kts | 335° |
| 2026-04-15 04:22 | -12.83865 | 51.73169 | 35978 ft | 469 kts | 335° |
| 2026-04-15 04:22 | -12.77853 | 51.70467 | 35975 ft | 469 kts | 335° |
| 2026-04-15 04:23 | -12.71893 | 51.67789 | 35974 ft | 469 kts | 335° |
| 2026-04-15 04:23 | -12.65924 | 51.65109 | 35969 ft | 469 kts | 335° |
| 2026-04-15 04:24 | -12.59948 | 51.62426 | 35975 ft | 473 kts | 335° |
| 2026-04-15 04:24 | -12.53889 | 51.59708 | 35979 ft | 473 kts | 335° |
| 2026-04-15 04:25 | -12.47861 | 51.57006 | 35975 ft | 473 kts | 335° |
| 2026-04-15 04:25 | -12.41855 | 51.54315 | 35972 ft | 473 kts | 335° |
| 2026-04-15 04:26 | -12.35814 | 51.51609 | 35969 ft | 473 kts | 335° |
| 2026-04-15 04:26 | -12.29738 | 51.48888 | 35982 ft | 479 kts | 335° |
| 2026-04-15 04:27 | -12.23633 | 51.46156 | 35977 ft | 481 kts | 335° |
| 2026-04-15 04:27 | -12.17496 | 51.43412 | 35977 ft | 480 kts | 335° |
| 2026-04-15 04:28 | -12.11369 | 51.40674 | 35977 ft | 480 kts | 335° |
| 2026-04-15 04:28 | -12.05284 | 51.37956 | 35970 ft | 480 kts | 335° |
| 2026-04-15 04:29 | -11.99123 | 51.35206 | 35980 ft | 481 kts | 335° |
| 2026-04-15 04:29 | -11.93017 | 51.32480 | 35975 ft | 482 kts | 335° |
| 2026-04-15 04:30 | -11.86868 | 51.29738 | 35975 ft | 481 kts | 335° |
| 2026-04-15 04:30 | -11.80715 | 51.26995 | 35974 ft | 481 kts | 335° |
| 2026-04-15 04:31 | -11.74604 | 51.24272 | 35974 ft | 481 kts | 335° |
| 2026-04-15 04:31 | -11.68455 | 51.21534 | 35975 ft | 482 kts | 335° |
| 2026-04-15 04:32 | -11.62307 | 51.18797 | 35977 ft | 483 kts | 335° |
| 2026-04-15 04:32 | -11.56178 | 51.16070 | 35978 ft | 484 kts | 335° |
| 2026-04-15 04:33 | -11.49992 | 51.13320 | 35974 ft | 483 kts | 335° |
| 2026-04-15 04:33 | -11.43815 | 51.10574 | 35976 ft | 483 kts | 335° |
| 2026-04-15 04:34 | -11.37656 | 51.07837 | 35975 ft | 483 kts | 335° |
| 2026-04-15 04:34 | -11.31506 | 51.05106 | 35974 ft | 483 kts | 335° |
| 2026-04-15 04:35 | -11.25374 | 51.02385 | 35970 ft | 483 kts | 335° |
| 2026-04-15 04:35 | -11.19208 | 50.99649 | 35970 ft | 483 kts | 335° |
| 2026-04-15 04:36 | -11.13032 | 50.96910 | 35968 ft | 483 kts | 335° |
| 2026-04-15 04:36 | -11.06879 | 50.94183 | 35974 ft | 485 kts | 335° |
| 2026-04-15 04:37 | -11.00680 | 50.91437 | 35967 ft | 484 kts | 335° |
| 2026-04-15 04:37 | -10.94506 | 50.88703 | 35969 ft | 485 kts | 335° |
| 2026-04-15 04:38 | -10.88310 | 50.85960 | 35971 ft | 485 kts | 335° |
| 2026-04-15 04:38 | -10.82118 | 50.83222 | 35963 ft | 484 kts | 335° |
| 2026-04-15 04:39 | -10.75920 | 50.80482 | 35970 ft | 487 kts | 335° |
| 2026-04-15 04:39 | -10.69742 | 50.77750 | 35968 ft | 487 kts | 335° |
| 2026-04-15 04:40 | -10.63491 | 50.74988 | 35965 ft | 487 kts | 335° |
| 2026-04-15 04:40 | -10.57297 | 50.72253 | 35967 ft | 487 kts | 335° |
| 2026-04-15 04:41 | -10.51077 | 50.69507 | 35960 ft | 487 kts | 335° |
| 2026-04-15 04:41 | -10.44858 | 50.66763 | 35968 ft | 489 kts | 335° |
| 2026-04-15 04:42 | -10.38606 | 50.64005 | 35962 ft | 490 kts | 335° |
| 2026-04-15 04:42 | -10.32350 | 50.61247 | 35962 ft | 490 kts | 335° |
| 2026-04-15 04:43 | -10.26106 | 50.58496 | 35960 ft | 491 kts | 335° |
| 2026-04-15 04:43 | -10.19833 | 50.55734 | 35957 ft | 491 kts | 334° |
| 2026-04-15 04:44 | -10.13560 | 50.52971 | 35958 ft | 493 kts | 335° |
| 2026-04-15 04:44 | -10.07242 | 50.50190 | 35963 ft | 494 kts | 335° |
| 2026-04-15 04:45 | -10.00975 | 50.47434 | 35961 ft | 494 kts | 335° |
| 2026-04-15 04:45 | -9.94640 | 50.44651 | 35960 ft | 494 kts | 334° |
| 2026-04-15 04:46 | -9.88333 | 50.41875 | 35955 ft | 495 kts | 334° |
| 2026-04-15 04:46 | -9.78828 | 50.37693 | 35947 ft | 497 kts | 334° |
| 2026-04-15 04:47 | -9.72481 | 50.34904 | 35953 ft | 497 kts | 335° |
| 2026-04-15 04:47 | -9.66156 | 50.32126 | 35964 ft | 497 kts | 335° |
| 2026-04-15 04:48 | -9.59814 | 50.29342 | 35964 ft | 497 kts | 334° |
| 2026-04-15 04:48 | -9.53422 | 50.26537 | 35952 ft | 499 kts | 334° |
| 2026-04-15 04:49 | -9.47088 | 50.23758 | 35946 ft | 499 kts | 334° |
| 2026-04-15 04:49 | -9.40691 | 50.20953 | 35961 ft | 500 kts | 335° |
| 2026-04-15 04:50 | -9.34302 | 50.18153 | 35954 ft | 500 kts | 334° |
| 2026-04-15 04:50 | -9.27946 | 50.15368 | 35941 ft | 500 kts | 334° |
| 2026-04-15 04:51 | -9.21543 | 50.12563 | 35963 ft | 501 kts | 334° |
| 2026-04-15 04:51 | -9.15160 | 50.09769 | 35962 ft | 501 kts | 334° |
| 2026-04-15 04:52 | -9.08740 | 50.06960 | 35956 ft | 501 kts | 334° |
| 2026-04-15 04:52 | -9.02338 | 50.04159 | 35941 ft | 501 kts | 334° |
| 2026-04-15 04:53 | -8.95951 | 50.01366 | 35950 ft | 502 kts | 334° |
| 2026-04-15 04:53 | -8.89544 | 49.98565 | 35950 ft | 503 kts | 334° |
| 2026-04-15 04:54 | -8.83080 | 49.95740 | 35952 ft | 503 kts | 334° |
| 2026-04-15 04:54 | -8.76661 | 49.92936 | 35948 ft | 504 kts | 334° |
| 2026-04-15 04:55 | -8.70236 | 49.90132 | 35949 ft | 504 kts | 334° |
| 2026-04-15 04:55 | -8.63779 | 49.87314 | 35947 ft | 504 kts | 334° |
| 2026-04-15 04:56 | -8.57338 | 49.84504 | 35944 ft | 504 kts | 334° |
| 2026-04-15 04:56 | -8.50927 | 49.81708 | 35943 ft | 504 kts | 334° |
| 2026-04-15 04:57 | -8.44480 | 49.78897 | 35946 ft | 504 kts | 334° |
| 2026-04-15 04:57 | -8.38065 | 49.76101 | 35948 ft | 504 kts | 334° |
| 2026-04-15 04:58 | -8.31625 | 49.73295 | 35944 ft | 505 kts | 334° |
| 2026-04-15 04:58 | -8.25166 | 49.70482 | 35944 ft | 506 kts | 334° |
| 2026-04-15 04:59 | -8.18697 | 49.67666 | 35946 ft | 506 kts | 334° |
| 2026-04-15 04:59 | -8.12225 | 49.64850 | 35944 ft | 506 kts | 334° |
| 2026-04-15 05:00 | -8.05761 | 49.62038 | 35950 ft | 507 kts | 334° |
| 2026-04-15 05:00 | -7.99275 | 49.59217 | 35947 ft | 507 kts | 334° |
| 2026-04-15 05:01 | -7.92799 | 49.56402 | 35942 ft | 507 kts | 334° |
| 2026-04-15 05:01 | -7.86331 | 49.53591 | 35941 ft | 507 kts | 334° |
| 2026-04-15 05:02 | -7.79854 | 49.50777 | 35940 ft | 508 kts | 334° |
| 2026-04-15 05:02 | -7.73339 | 49.47948 | 35939 ft | 509 kts | 334° |
| 2026-04-15 05:03 | -7.66823 | 49.45119 | 35941 ft | 509 kts | 334° |
| 2026-04-15 05:03 | -7.60310 | 49.42292 | 35938 ft | 509 kts | 334° |
| 2026-04-15 05:04 | -7.53848 | 49.39489 | 35939 ft | 509 kts | 334° |
| 2026-04-15 05:04 | -7.47298 | 49.36648 | 35935 ft | 509 kts | 333° |
| 2026-04-15 05:05 | -7.40810 | 49.33836 | 35936 ft | 509 kts | 333° |
| 2026-04-15 05:05 | -7.34321 | 49.31023 | 35939 ft | 509 kts | 333° |
| 2026-04-15 05:06 | -7.27811 | 49.28201 | 35937 ft | 510 kts | 333° |
| 2026-04-15 05:06 | -7.21285 | 49.25374 | 35936 ft | 510 kts | 333° |
| 2026-04-15 05:07 | -7.14769 | 49.22553 | 35935 ft | 510 kts | 333° |
| 2026-04-15 05:07 | -7.08261 | 49.19736 | 35936 ft | 509 kts | 333° |
| 2026-04-15 05:08 | -7.01736 | 49.16913 | 35936 ft | 509 kts | 333° |
| 2026-04-15 05:08 | -6.95259 | 49.14112 | 35935 ft | 509 kts | 333° |
| 2026-04-15 05:09 | -6.89807 | 49.11753 | 35936 ft | 509 kts | 333° |
| 2026-04-15 05:09 | -6.83303 | 49.08940 | 35935 ft | 509 kts | 333° |
| 2026-04-15 05:10 | -6.76788 | 49.06123 | 35938 ft | 510 kts | 333° |
| 2026-04-15 05:10 | -6.70279 | 49.03310 | 35938 ft | 510 kts | 333° |
| 2026-04-15 05:11 | -6.63747 | 49.00488 | 35936 ft | 510 kts | 333° |
| 2026-04-15 05:11 | -6.57232 | 48.97674 | 35934 ft | 510 kts | 333° |
| 2026-04-15 05:12 | -6.50755 | 48.94878 | 35936 ft | 509 kts | 333° |
| 2026-04-15 05:12 | -6.44223 | 48.92058 | 35935 ft | 509 kts | 333° |
| 2026-04-15 05:13 | -6.37703 | 48.89244 | 35933 ft | 509 kts | 333° |
| 2026-04-15 05:13 | -6.31220 | 48.86447 | 35933 ft | 509 kts | 333° |
| 2026-04-15 05:14 | -6.24730 | 48.83648 | 35934 ft | 508 kts | 333° |
| 2026-04-15 05:14 | -6.18203 | 48.80834 | 35938 ft | 508 kts | 333° |
| 2026-04-15 05:15 | -6.11704 | 48.78032 | 35936 ft | 508 kts | 333° |
| 2026-04-15 05:15 | -6.05220 | 48.75237 | 35933 ft | 508 kts | 333° |
| 2026-04-15 05:16 | -5.98723 | 48.72438 | 35936 ft | 507 kts | 333° |
| 2026-04-15 05:16 | -5.92275 | 48.69661 | 35934 ft | 506 kts | 333° |
| 2026-04-15 05:17 | -5.85769 | 48.66859 | 35936 ft | 506 kts | 333° |
| 2026-04-15 05:17 | -5.79291 | 48.64070 | 35935 ft | 507 kts | 333° |
| 2026-04-15 05:18 | -5.72803 | 48.61277 | 35936 ft | 507 kts | 333° |
| 2026-04-15 05:18 | -5.66364 | 48.58506 | 35935 ft | 506 kts | 333° |
| 2026-04-15 05:19 | -5.59879 | 48.55717 | 35933 ft | 506 kts | 333° |
| 2026-04-15 05:19 | -5.53386 | 48.52924 | 35933 ft | 506 kts | 333° |
| 2026-04-15 05:20 | -5.46936 | 48.50150 | 35933 ft | 506 kts | 333° |
| 2026-04-15 05:20 | -5.40459 | 48.47366 | 35936 ft | 506 kts | 333° |
| 2026-04-15 05:21 | -5.33979 | 48.44581 | 35933 ft | 506 kts | 333° |
| 2026-04-15 05:21 | -5.27490 | 48.41793 | 35933 ft | 506 kts | 333° |
| 2026-04-15 05:22 | -5.21010 | 48.39009 | 35933 ft | 506 kts | 333° |
| 2026-04-15 05:22 | -5.14548 | 48.36233 | 35933 ft | 506 kts | 333° |
| 2026-04-15 05:23 | -5.08085 | 48.33459 | 35932 ft | 506 kts | 333° |
| 2026-04-15 05:23 | -5.01595 | 48.30673 | 35930 ft | 505 kts | 333° |
| 2026-04-15 05:24 | -4.95139 | 48.27901 | 35933 ft | 505 kts | 333° |
| 2026-04-15 05:24 | -4.88679 | 48.25128 | 35933 ft | 505 kts | 333° |
| 2026-04-15 05:25 | -4.82203 | 48.22350 | 35929 ft | 505 kts | 333° |
| 2026-04-15 05:25 | -4.75772 | 48.19591 | 35930 ft | 506 kts | 333° |
| 2026-04-15 05:26 | -4.69320 | 48.16824 | 35933 ft | 506 kts | 333° |
| 2026-04-15 05:26 | -4.62845 | 48.14048 | 35930 ft | 506 kts | 333° |
| 2026-04-15 05:27 | -4.56376 | 48.11275 | 35933 ft | 506 kts | 333° |
| 2026-04-15 05:27 | -4.49901 | 48.08500 | 35933 ft | 506 kts | 333° |
| 2026-04-15 05:28 | -4.43415 | 48.05720 | 36094 ft | 506 kts | 333° |
| 2026-04-15 05:28 | -4.40177 | 48.04333 | 36295 ft | 505 kts | 333° |
| 2026-04-15 05:28 | -4.36949 | 48.02951 | 36489 ft | 504 kts | 333° |